createdAt,value
2018-03-24T00:00:31.532Z,92.20
2018-03-24T00:03:00.561Z,92.30
2018-03-24T00:05:28.796Z,92.20
2018-03-24T00:07:57.812Z,92.30
2018-03-24T00:10:26.104Z,92.60
2018-03-24T00:12:54.351Z,92.10
2018-03-24T00:15:23.437Z,91.90
2018-03-24T00:17:52.464Z,91.80
2018-03-24T00:20:20.740Z,91.80
2018-03-24T00:22:49.016Z,91.70
2018-03-24T00:25:17.253Z,91.50
2018-03-24T00:27:46.284Z,91.50
2018-03-24T00:30:14.560Z,91.50
2018-03-24T00:32:42.797Z,91.50
2018-03-24T00:35:11.837Z,91.30
2018-03-24T00:37:40.102Z,91.30
2018-03-24T00:40:08.344Z,91.30
2018-03-24T00:42:37.473Z,91.20
2018-03-24T00:45:05.720Z,91.20
2018-03-24T00:47:33.961Z,91.10
2018-03-24T00:50:02.200Z,91.10
2018-03-24T00:52:30.480Z,91.20
2018-03-24T00:54:58.740Z,91.10
2018-03-24T00:57:26.979Z,91.10
2018-03-24T00:59:56.020Z,91.00
2018-03-24T01:02:24.256Z,91.00
2018-03-24T01:04:53.283Z,91.10
2018-03-24T01:07:21.523Z,91.10
2018-03-24T01:09:50.551Z,91.20
2018-03-24T01:12:18.788Z,91.30
2018-03-24T01:14:47.790Z,91.10
2018-03-24T01:17:16.796Z,91.00
2018-03-24T01:19:45.081Z,91.00
2018-03-24T01:22:13.323Z,91.40
2018-03-24T01:24:42.330Z,91.30
2018-03-24T01:27:10.577Z,91.30
2018-03-24T01:29:38.899Z,91.40
2018-03-24T01:32:07.144Z,91.30
2018-03-24T01:34:36.175Z,91.50
2018-03-24T01:37:04.448Z,91.50
2018-03-24T01:39:32.692Z,91.70
2018-03-24T01:42:00.933Z,91.80
2018-03-24T01:44:29.181Z,91.90
2018-03-24T01:46:57.417Z,92.10
2018-03-24T01:49:25.662Z,92.00
2018-03-24T01:51:54.020Z,92.00
2018-03-24T01:54:22.272Z,91.80
2018-03-24T01:56:50.548Z,91.80
2018-03-24T01:59:18.789Z,91.90
2018-03-24T02:01:47.789Z,92.00
2018-03-24T02:04:16.052Z,92.00
2018-03-24T02:06:45.081Z,91.90
2018-03-24T02:09:13.320Z,91.80
2018-03-24T02:11:42.328Z,91.90
2018-03-24T02:14:10.621Z,91.90
2018-03-24T02:16:38.896Z,91.80
2018-03-24T02:19:07.132Z,91.90
2018-03-24T02:21:36.157Z,92.00
2018-03-24T02:24:04.392Z,92.00
2018-03-24T02:26:32.637Z,92.20
2018-03-24T02:29:00.885Z,92.30
2018-03-24T02:31:29.161Z,92.80
2018-03-24T02:33:57.406Z,92.60
2018-03-24T02:36:26.409Z,92.80
2018-03-24T02:38:54.705Z,92.80
2018-03-24T02:41:22.952Z,92.80
2018-03-24T02:43:51.987Z,92.80
2018-03-24T02:46:20.240Z,92.80
2018-03-24T02:48:48.529Z,92.70
2018-03-24T02:51:16.762Z,92.60
2018-03-24T02:53:45.777Z,92.50
2018-03-24T02:56:14.013Z,92.50
2018-03-24T02:58:42.355Z,92.40
2018-03-24T03:01:10.585Z,92.40
2018-03-24T03:03:39.593Z,92.20
2018-03-24T03:06:07.830Z,92.20
2018-03-24T03:08:36.069Z,92.10
2018-03-24T03:11:04.308Z,92.00
2018-03-24T03:13:33.425Z,92.00
2018-03-24T03:16:01.709Z,92.00
2018-03-24T03:18:29.944Z,92.00
2018-03-24T03:20:58.952Z,92.00
2018-03-24T03:23:27.192Z,92.00
2018-03-24T03:25:55.521Z,91.90
2018-03-24T03:28:23.756Z,91.90
2018-03-24T03:31:10.589Z,91.80
2018-03-24T03:33:38.827Z,91.80
2018-03-24T03:36:07.157Z,91.80
2018-03-24T03:38:35.404Z,91.90
2018-03-24T03:41:04.443Z,92.00
2018-03-24T03:43:32.709Z,92.00
2018-03-24T03:46:00.980Z,92.00
2018-03-24T03:48:29.257Z,92.30
2018-03-24T03:50:57.528Z,92.40
2018-03-24T03:53:25.769Z,92.30
2018-03-24T03:55:54.776Z,92.30
2018-03-24T03:58:23.017Z,92.30
2018-03-24T04:00:51.352Z,92.30
2018-03-24T04:03:19.620Z,92.30
2018-03-24T04:05:47.896Z,92.20
2018-03-24T04:08:16.174Z,92.20
2018-03-24T04:10:44.452Z,92.20
2018-03-24T04:13:12.726Z,92.40
2018-03-24T04:15:40.964Z,92.30
2018-03-24T04:18:09.976Z,92.40
2018-03-24T04:20:38.265Z,92.40
2018-03-24T04:23:06.508Z,92.40
2018-03-24T04:25:35.541Z,92.60
2018-03-24T04:28:03.791Z,92.50
2018-03-24T04:30:32.028Z,92.60
2018-03-24T04:33:00.279Z,92.70
2018-03-24T04:35:28.537Z,92.80
2018-03-24T04:37:56.808Z,92.70
2018-03-24T04:40:25.051Z,93.10
2018-03-24T04:42:54.072Z,92.60
2018-03-24T04:45:22.308Z,92.90
2018-03-24T04:47:51.348Z,92.70
2018-03-24T04:50:19.588Z,92.70
2018-03-24T04:52:48.592Z,92.70
2018-03-24T04:55:16.907Z,92.70
2018-03-24T04:57:45.175Z,92.70
2018-03-24T05:00:13.412Z,92.80
2018-03-24T05:02:42.416Z,92.60
2018-03-24T05:05:10.715Z,92.60
2018-03-24T05:07:38.956Z,92.60
2018-03-24T05:10:07.964Z,92.80
2018-03-24T05:12:36.248Z,92.80
2018-03-24T05:15:04.525Z,92.80
2018-03-24T05:17:32.805Z,92.80
2018-03-24T05:20:01.080Z,92.90
2018-03-24T05:22:29.348Z,92.90
2018-03-24T05:24:57.632Z,92.80
2018-03-24T05:27:25.900Z,92.90
2018-03-24T05:29:54.149Z,93.10
2018-03-24T05:32:23.176Z,93.10
2018-03-24T05:34:51.424Z,93.10
2018-03-24T05:37:19.665Z,92.90
2018-03-24T05:39:47.908Z,92.90
2018-03-24T05:42:16.168Z,92.80
2018-03-24T05:44:44.420Z,92.90
2018-03-24T05:47:12.657Z,92.70
2018-03-24T05:49:41.004Z,92.40
2018-03-24T05:52:10.100Z,92.40
2018-03-24T05:54:38.365Z,92.30
2018-03-24T05:57:06.639Z,92.20
2018-03-24T05:59:34.916Z,92.10
2018-03-24T06:02:03.153Z,92.00
2018-03-24T06:04:32.185Z,91.30
2018-03-24T06:07:00.434Z,91.30
2018-03-24T06:09:28.669Z,91.10
2018-03-24T06:11:57.008Z,90.80
2018-03-24T06:14:25.289Z,90.70
2018-03-24T06:16:53.560Z,90.30
2018-03-24T06:19:21.796Z,90.00
2018-03-24T06:21:50.824Z,88.80
2018-03-24T06:24:19.104Z,88.60
2018-03-24T06:26:47.357Z,88.10
2018-03-24T06:29:16.353Z,85.60
2018-03-24T06:31:59.477Z,85.60
2018-03-24T06:34:28.126Z,84.50
2018-03-24T06:37:00.297Z,83.80
2018-03-24T06:39:28.532Z,82.00
2018-03-24T06:41:56.892Z,80.90
2018-03-24T06:44:25.128Z,79.10
2018-03-24T06:46:54.141Z,76.70
2018-03-24T06:49:22.380Z,76.60
2018-03-24T06:51:50.620Z,75.80
2018-03-24T06:54:18.888Z,74.40
2018-03-24T06:56:47.122Z,74.70
2018-03-24T06:59:16.133Z,72.90
2018-03-24T07:01:44.383Z,72.90
2018-03-24T07:04:12.633Z,74.00
2018-03-24T07:06:40.876Z,74.50
2018-03-24T07:09:09.128Z,73.40
2018-03-24T07:11:38.152Z,73.10
2018-03-24T07:14:06.733Z,73.10
2018-03-24T07:16:35.010Z,73.30
2018-03-24T07:19:03.269Z,71.50
2018-03-24T07:21:31.563Z,71.90
2018-03-24T07:23:59.800Z,72.10
2018-03-24T07:26:28.821Z,72.80
2018-03-24T07:28:57.101Z,72.80
2018-03-24T07:31:25.375Z,74.30
2018-03-24T07:33:53.584Z,75.10
2018-03-24T07:36:21.829Z,76.30
2018-03-24T07:38:50.133Z,77.60
2018-03-24T07:41:18.356Z,76.80
2018-03-24T07:43:47.520Z,76.90
2018-03-24T07:46:16.532Z,76.60
2018-03-24T07:48:44.836Z,75.60
2018-03-24T07:51:11.588Z,74.60
2018-03-24T07:53:37.596Z,70.20
2018-03-24T07:56:03.661Z,69.10
2018-03-24T07:58:29.685Z,68.10
2018-03-24T08:00:55.936Z,68.60
2018-03-24T08:03:22.792Z,71.80
2018-03-24T08:05:48.872Z,71.70
2018-03-24T08:08:14.888Z,72.20
2018-03-24T08:10:40.892Z,71.60
2018-03-24T08:13:06.900Z,71.90
2018-03-24T08:15:32.925Z,72.30
2018-03-24T08:17:58.970Z,70.60
2018-03-24T08:20:25.008Z,70.30
2018-03-24T08:22:51.074Z,67.30
2018-03-24T08:25:17.105Z,65.80
2018-03-24T08:27:43.101Z,66.60
2018-03-24T08:30:09.860Z,67.70
2018-03-24T08:32:35.868Z,67.70
2018-03-24T08:35:02.631Z,61.10
2018-03-24T08:37:28.683Z,61.10
2018-03-24T08:39:54.694Z,58.80
2018-03-24T08:42:20.692Z,57.80
2018-03-24T08:44:46.720Z,57.30
2018-03-24T08:47:12.720Z,58.00
2018-03-24T08:49:39.528Z,59.90
2018-03-24T08:52:05.589Z,59.40
2018-03-24T08:54:32.335Z,59.50
2018-03-24T08:56:59.077Z,59.60
2018-03-24T08:59:25.113Z,59.50
2018-03-24T09:01:51.135Z,60.80
2018-03-24T09:04:17.137Z,60.90
2018-03-24T09:06:43.892Z,63.10
2018-03-24T09:09:09.957Z,63.10
2018-03-24T09:11:35.968Z,61.60
2018-03-24T09:14:01.972Z,60.70
2018-03-24T09:16:27.990Z,62.10
2018-03-24T09:18:54.005Z,63.00
2018-03-24T09:21:20.017Z,62.90
2018-03-24T09:23:46.782Z,65.20
2018-03-24T09:26:12.844Z,65.10
2018-03-24T09:28:38.856Z,67.20
2018-03-24T09:31:04.956Z,65.20
2018-03-24T09:33:30.960Z,64.90
2018-03-24T09:35:56.968Z,63.50
2018-03-24T09:38:23.725Z,62.10
2018-03-24T09:40:49.813Z,62.10
2018-03-24T09:43:15.833Z,59.60
2018-03-24T09:45:41.945Z,59.30
2018-03-24T09:48:07.968Z,57.80
2018-03-24T09:50:33.976Z,58.00
2018-03-24T09:53:00.120Z,56.10
2018-03-24T09:55:26.924Z,54.20
2018-03-24T09:57:53.004Z,54.60
2018-03-24T10:00:19.816Z,51.40
2018-03-24T10:02:45.881Z,51.40
2018-03-24T10:05:12.647Z,51.50
2018-03-24T10:07:38.632Z,51.50
2018-03-24T10:10:04.632Z,53.30
2018-03-24T10:12:30.640Z,51.10
2018-03-24T10:14:56.940Z,49.70
2018-03-24T10:17:23.004Z,50.00
2018-03-24T10:19:49.012Z,49.60
2018-03-24T10:25:17.216Z,49.40
2018-03-24T10:27:45.521Z,52.20
2018-03-24T10:30:14.567Z,50.30
2018-03-24T10:32:42.808Z,50.30
2018-03-24T10:35:11.163Z,52.20
2018-03-24T10:37:45.927Z,47.30
2018-03-24T10:40:14.216Z,47.30
2018-03-24T10:42:42.464Z,51.10
2018-03-24T10:45:10.779Z,51.10
2018-03-24T10:47:39.086Z,52.50
2018-03-24T10:50:07.295Z,52.10
2018-03-24T10:52:35.549Z,49.30
2018-03-24T10:55:04.569Z,49.80
2018-03-24T10:57:32.860Z,49.80
2018-03-24T11:00:01.101Z,51.30
2018-03-24T11:02:30.232Z,51.20
2018-03-24T11:04:58.484Z,51.30
2018-03-24T11:07:26.752Z,50.50
2018-03-24T11:09:55.068Z,51.60
2018-03-24T11:12:23.352Z,49.70
2018-03-24T11:14:51.606Z,51.20
2018-03-24T11:17:20.098Z,50.80
2018-03-24T11:19:48.367Z,50.80
2018-03-24T11:22:16.641Z,51.30
2018-03-24T11:24:44.921Z,50.60
2018-03-24T11:27:13.165Z,51.20
2018-03-24T11:29:41.465Z,50.60
2018-03-24T11:32:09.705Z,50.00
2018-03-24T11:34:38.725Z,51.20
2018-03-24T11:37:06.972Z,51.20
2018-03-24T11:39:35.988Z,51.10
2018-03-24T11:42:04.237Z,51.10
2018-03-24T11:44:33.254Z,53.00
2018-03-24T11:47:01.500Z,53.10
2018-03-24T11:49:30.543Z,53.20
2018-03-24T11:51:58.793Z,52.60
2018-03-24T11:54:38.817Z,55.00
2018-03-24T11:57:07.832Z,54.40
2018-03-24T11:59:36.136Z,54.40
2018-03-24T12:02:04.417Z,56.80
2018-03-24T12:04:32.660Z,53.30
2018-03-24T12:07:00.958Z,54.70
2018-03-24T12:09:29.213Z,53.00
2018-03-24T12:11:57.508Z,52.40
2018-03-24T12:14:25.753Z,52.60
2018-03-24T12:16:54.677Z,53.40
2018-03-24T12:19:22.896Z,53.90
2018-03-24T12:21:51.941Z,54.00
2018-03-24T12:24:20.189Z,53.50
2018-03-24T12:26:48.437Z,53.30
2018-03-24T12:29:16.707Z,54.20
2018-03-24T12:31:45.081Z,54.20
2018-03-24T12:34:14.444Z,52.50
2018-03-24T12:36:42.637Z,53.40
2018-03-24T12:39:10.892Z,55.20
2018-03-24T12:41:39.148Z,55.40
2018-03-24T12:44:07.396Z,53.40
2018-03-24T12:46:35.648Z,54.50
2018-03-24T12:49:03.904Z,54.40
2018-03-24T12:51:32.164Z,54.70
2018-03-24T12:54:00.420Z,55.20
2018-03-24T12:56:28.666Z,56.00
2018-03-24T12:58:56.914Z,54.90
2018-03-24T13:01:25.260Z,54.10
2018-03-24T13:03:53.580Z,55.80
2018-03-24T13:06:21.920Z,56.70
2018-03-24T13:08:50.196Z,56.00
2018-03-24T13:11:18.472Z,56.70
2018-03-24T13:13:46.752Z,56.50
2018-03-24T13:16:15.021Z,56.70
2018-03-24T13:18:43.396Z,56.80
2018-03-24T13:21:11.637Z,56.10
2018-03-24T13:23:40.672Z,55.20
2018-03-24T13:26:08.912Z,55.20
2018-03-24T13:28:37.916Z,56.10
2018-03-24T13:31:06.197Z,56.10
2018-03-24T13:33:35.370Z,55.30
2018-03-24T13:36:04.376Z,56.10
2018-03-24T13:38:32.623Z,56.10
2018-03-24T13:41:00.978Z,57.10
2018-03-24T13:43:29.297Z,58.80
2018-03-24T13:45:59.068Z,56.60
2018-03-24T13:48:28.115Z,56.10
2018-03-24T13:50:56.368Z,56.10
2018-03-24T13:53:25.401Z,56.30
2018-03-24T13:55:53.644Z,56.30
2018-03-24T13:58:22.655Z,54.90
2018-03-24T14:00:50.913Z,54.80
2018-03-24T14:03:19.937Z,54.60
2018-03-24T14:05:48.180Z,54.50
2018-03-24T14:08:17.884Z,54.00
2018-03-24T14:10:46.888Z,54.70
2018-03-24T14:13:15.136Z,54.70
2018-03-24T14:15:43.472Z,54.70
2018-03-24T14:18:11.716Z,54.70
2018-03-24T14:20:40.014Z,55.20
2018-03-24T14:23:08.265Z,55.80
2018-03-24T14:25:36.501Z,55.80
2018-03-24T14:28:04.837Z,55.50
2018-03-24T14:30:33.081Z,55.50
2018-03-24T14:33:02.092Z,56.20
2018-03-24T14:35:30.489Z,56.10
2018-03-24T14:37:58.888Z,56.80
2018-03-24T14:40:27.244Z,57.00
2018-03-24T14:42:55.492Z,57.40
2018-03-24T14:45:23.796Z,56.70
2018-03-24T14:47:52.135Z,57.90
2018-03-24T14:50:21.141Z,57.50
2018-03-24T14:52:49.465Z,57.40
2018-03-24T14:55:17.709Z,56.90
2018-03-24T14:57:45.998Z,57.70
2018-03-24T15:00:14.246Z,57.00
2018-03-24T15:02:42.541Z,57.40
2018-03-24T15:05:10.796Z,57.50
2018-03-24T15:07:39.105Z,57.80
2018-03-24T15:10:07.363Z,57.20
2018-03-24T15:12:35.620Z,57.70
2018-03-24T15:15:04.636Z,57.60
2018-03-24T15:17:32.905Z,57.70
2018-03-24T15:20:01.155Z,57.80
2018-03-24T15:22:29.457Z,57.90
2018-03-24T15:24:57.740Z,57.00
2018-03-24T15:27:25.982Z,57.90
2018-03-24T15:30:07.089Z,56.80
2018-03-24T15:32:57.074Z,56.80
2018-03-24T15:35:31.184Z,56.50
2018-03-24T15:38:00.759Z,55.90
2018-03-24T15:40:29.161Z,56.90
2018-03-24T15:42:57.405Z,56.20
2018-03-24T15:45:26.448Z,57.30
2018-03-24T15:47:54.692Z,57.20
2018-03-24T15:50:22.980Z,56.60
2018-03-24T15:52:51.329Z,57.20
2018-03-24T15:55:20.345Z,56.50
2018-03-24T15:57:48.585Z,56.50
2018-03-24T16:00:16.907Z,56.80
2018-03-24T16:02:45.176Z,57.30
2018-03-24T16:05:13.456Z,57.40
2018-03-24T16:07:41.732Z,58.10
2018-03-24T16:10:10.109Z,58.10
2018-03-24T16:12:38.350Z,58.50
2018-03-24T16:15:07.478Z,58.10
2018-03-24T16:17:35.965Z,58.10
2018-03-24T16:20:04.197Z,59.10
2018-03-24T16:22:33.213Z,57.60
2018-03-24T16:25:01.462Z,57.60
2018-03-24T16:27:30.721Z,57.80
2018-03-24T16:29:58.956Z,57.80
2018-03-24T16:32:27.204Z,57.50
2018-03-24T16:37:42.217Z,57.40
2018-03-24T16:40:10.710Z,57.70
2018-03-24T16:42:39.690Z,58.10
2018-03-24T16:45:07.961Z,58.10
2018-03-24T16:47:36.458Z,58.10
2018-03-24T16:50:04.720Z,58.90
2018-03-24T16:52:33.021Z,58.70
2018-03-24T16:55:01.390Z,59.20
2018-03-24T16:57:29.629Z,59.40
2018-03-24T16:59:57.872Z,59.80
2018-03-24T17:02:26.189Z,60.60
2018-03-24T17:04:55.264Z,60.70
2018-03-24T17:07:24.305Z,62.80
2018-03-24T17:09:52.581Z,61.90
2018-03-24T17:12:20.828Z,62.50
2018-03-24T17:14:50.013Z,63.90
2018-03-24T17:17:19.048Z,64.80
2018-03-24T17:19:47.292Z,64.70
2018-03-24T17:22:15.540Z,65.70
2018-03-24T17:24:43.784Z,66.40
2018-03-24T17:27:12.025Z,66.80
2018-03-24T17:29:40.319Z,67.60
2018-03-24T17:32:08.592Z,68.60
2018-03-24T17:34:36.828Z,69.50
2018-03-24T17:37:05.153Z,70.00
2018-03-24T17:39:33.417Z,70.60
2018-03-24T17:42:01.697Z,71.50
2018-03-24T17:44:29.973Z,72.20
2018-03-24T17:46:58.250Z,72.80
2018-03-24T17:49:26.503Z,73.20
2018-03-24T17:51:54.741Z,73.60
2018-03-24T17:54:22.988Z,74.00
2018-03-24T17:56:51.354Z,74.90
2018-03-24T17:59:19.720Z,75.50
2018-03-24T18:01:47.956Z,76.10
2018-03-24T18:04:17.030Z,77.00
2018-03-24T18:06:45.228Z,76.90
2018-03-24T18:09:14.245Z,77.70
2018-03-24T18:11:42.481Z,77.70
2018-03-24T18:14:10.734Z,78.30
2018-03-24T18:16:38.968Z,78.30
2018-03-24T18:19:07.233Z,78.80
2018-03-24T18:21:35.539Z,79.10
2018-03-24T18:24:03.768Z,79.40
2018-03-24T18:26:32.784Z,80.00
2018-03-24T18:29:01.208Z,79.90
2018-03-24T18:31:29.456Z,80.90
2018-03-24T18:33:57.698Z,80.40
2018-03-24T18:36:26.004Z,80.80
2018-03-24T18:38:54.256Z,80.90
2018-03-24T18:41:22.731Z,81.30
2018-03-24T18:43:50.905Z,81.60
2018-03-24T18:46:19.923Z,82.20
2018-03-24T18:48:48.204Z,82.20
2018-03-24T18:51:16.469Z,82.50
2018-03-24T18:53:44.712Z,82.70
2018-03-24T18:56:13.753Z,83.20
2018-03-24T18:58:42.001Z,83.20
2018-03-24T19:01:10.245Z,83.50
2018-03-24T19:03:38.489Z,83.80
2018-03-24T19:06:06.745Z,84.10
2018-03-24T19:08:35.119Z,84.20
2018-03-24T19:11:03.369Z,84.20
2018-03-24T19:13:32.379Z,84.40
2018-03-24T19:16:00.612Z,84.40
2018-03-24T19:18:29.650Z,84.80
2018-03-24T19:20:57.938Z,84.40
2018-03-24T19:23:26.182Z,84.10
2018-03-24T19:25:55.193Z,83.60
2018-03-24T19:28:23.481Z,83.60
2018-03-24T19:30:51.728Z,83.60
2018-03-24T19:33:19.965Z,83.70
2018-03-24T19:35:48.220Z,83.70
2018-03-24T19:38:16.480Z,83.80
2018-03-24T19:40:44.720Z,84.00
2018-03-24T19:43:13.724Z,84.00
2018-03-24T19:45:42.025Z,83.90
2018-03-24T19:48:10.292Z,83.90
2018-03-24T19:50:38.548Z,84.20
2018-03-24T19:53:06.881Z,83.90
2018-03-24T19:55:35.120Z,83.50
2018-03-24T19:58:03.384Z,83.30
2018-03-24T20:00:31.716Z,83.20
2018-03-24T20:02:59.944Z,83.20
2018-03-24T20:05:28.232Z,83.50
2018-03-24T20:07:56.473Z,83.60
2018-03-24T20:10:24.773Z,83.80
2018-03-24T20:12:53.017Z,83.20
2018-03-24T20:15:22.032Z,83.30
2018-03-24T20:17:50.264Z,83.30
2018-03-24T20:20:18.515Z,83.70
2018-03-24T20:22:47.109Z,83.60
2018-03-24T20:25:15.322Z,83.00
2018-03-24T20:27:44.329Z,82.80
2018-03-24T20:30:12.568Z,82.90
2018-03-24T20:32:40.813Z,83.00
2018-03-24T20:35:09.113Z,83.30
2018-03-24T20:37:37.347Z,83.60
2018-03-24T20:40:05.585Z,83.90
2018-03-24T20:42:34.600Z,83.80
2018-03-24T20:45:02.832Z,83.70
2018-03-24T20:47:31.092Z,83.70
2018-03-24T20:49:59.332Z,83.60
2018-03-24T20:52:27.608Z,83.50
2018-03-24T20:54:55.852Z,83.40
2018-03-24T20:57:24.856Z,83.30
2018-03-24T20:59:53.103Z,83.30
2018-03-24T21:02:21.419Z,83.30
2018-03-24T21:04:49.699Z,83.60
2018-03-24T21:07:17.936Z,83.70
2018-03-24T21:09:46.952Z,83.90
2018-03-24T21:12:15.248Z,83.90
2018-03-24T21:14:43.574Z,84.50
2018-03-24T21:17:11.793Z,84.50
2018-03-24T21:19:40.045Z,84.70
2018-03-24T21:22:08.344Z,85.10
2018-03-24T21:24:36.608Z,85.70
2018-03-24T21:27:04.849Z,86.10
2018-03-24T21:29:33.090Z,86.20
2018-03-24T21:32:01.333Z,86.70
2018-03-24T21:34:29.620Z,86.90
2018-03-24T21:36:57.864Z,87.40
2018-03-24T21:39:26.869Z,88.00
2018-03-24T21:41:55.165Z,88.00
2018-03-24T21:44:23.405Z,88.00
2018-03-24T21:46:52.432Z,88.50
2018-03-24T21:49:20.668Z,88.40
2018-03-24T21:51:49.681Z,88.50
2018-03-24T21:54:17.925Z,88.50
2018-03-24T21:56:46.248Z,88.80
2018-03-24T21:59:14.524Z,88.90
2018-03-24T22:01:42.800Z,89.00
2018-03-24T22:04:11.041Z,89.30
2018-03-24T22:06:40.069Z,89.60
2018-03-24T22:09:08.344Z,89.60
2018-03-24T22:11:36.585Z,89.70
2018-03-24T22:14:05.620Z,90.00
2018-03-24T22:16:33.893Z,90.00
2018-03-24T22:19:02.141Z,89.80
2018-03-24T22:21:30.376Z,90.00
2018-03-24T22:23:58.717Z,90.20
2018-03-24T22:26:26.965Z,90.10
2018-03-24T22:28:55.974Z,90.10
2018-03-24T22:31:24.208Z,90.10
2018-03-24T22:33:52.456Z,90.20
2018-03-24T22:36:20.709Z,90.20
2018-03-24T22:38:48.992Z,90.30
2018-03-24T22:41:17.263Z,90.50
2018-03-24T22:43:45.533Z,90.80
2018-03-24T22:46:13.776Z,90.80
2018-03-24T22:48:42.784Z,90.60
2018-03-24T22:51:11.088Z,90.60
2018-03-24T22:53:39.326Z,90.80
2018-03-24T22:56:07.572Z,90.70
2018-03-24T22:58:35.904Z,90.80
2018-03-24T23:01:04.148Z,90.90
2018-03-24T23:03:32.398Z,90.90
2018-03-24T23:06:00.724Z,90.80
2018-03-24T23:08:28.968Z,90.70
2018-03-24T23:10:58.092Z,90.80
2018-03-24T23:13:26.368Z,90.80
2018-03-24T23:15:54.604Z,91.10
2018-03-24T23:18:23.617Z,91.40
2018-03-24T23:20:51.920Z,91.40
2018-03-24T23:23:20.165Z,91.30
2018-03-24T23:25:49.244Z,91.50
2018-03-24T23:28:18.277Z,91.60
2018-03-24T23:30:46.557Z,91.50
2018-03-24T23:33:14.833Z,91.70
2018-03-24T23:35:43.110Z,91.60
2018-03-24T23:38:11.384Z,91.60
2018-03-24T23:40:39.661Z,91.60
2018-03-24T23:43:07.936Z,91.50
2018-03-24T23:45:36.212Z,91.40
2018-03-24T23:48:04.444Z,91.50
2018-03-24T23:50:33.456Z,91.40
2018-03-24T23:53:01.693Z,91.40
2018-03-24T23:55:30.025Z,91.40
2018-03-24T23:57:58.300Z,91.40
